sensor_id;sensor_type;location;lat;lon;timestamp;pressure;altitude;pressure_sealevel;temperature
12854;BMP180;6495;51.808;7.478;2023-08-12T00:01:20;101398.00;;;23.30
12854;BMP180;6495;51.808;7.478;2023-08-12T00:03:48;101399.00;;;23.30
12854;BMP180;6495;51.808;7.478;2023-08-12T00:06:18;101394.00;;;23.30
12854;BMP180;6495;51.808;7.478;2023-08-12T00:08:46;101388.00;;;23.30
12854;BMP180;6495;51.808;7.478;2023-08-12T00:11:14;101398.00;;;23.30
12854;BMP180;6495;51.808;7.478;2023-08-12T00:13:42;101396.00;;;23.30
12854;BMP180;6495;51.808;7.478;2023-08-12T00:16:11;101387.00;;;23.30
12854;BMP180;6495;51.808;7.478;2023-08-12T00:18:39;101392.00;;;23.30
12854;BMP180;6495;51.808;7.478;2023-08-12T00:21:07;101376.00;;;23.30
12854;BMP180;6495;51.808;7.478;2023-08-12T00:23:40;101373.00;;;23.30
12854;BMP180;6495;51.808;7.478;2023-08-12T00:26:10;101364.00;;;23.30
12854;BMP180;6495;51.808;7.478;2023-08-12T00:28:38;101371.00;;;23.30
12854;BMP180;6495;51.808;7.478;2023-08-12T00:31:06;101368.00;;;23.30
12854;BMP180;6495;51.808;7.478;2023-08-12T00:33:34;101366.00;;;23.30
12854;BMP180;6495;51.808;7.478;2023-08-12T00:36:03;101352.00;;;23.30
12854;BMP180;6495;51.808;7.478;2023-08-12T00:38:32;101361.00;;;23.30
12854;BMP180;6495;51.808;7.478;2023-08-12T00:41:01;101355.00;;;23.30
12854;BMP180;6495;51.808;7.478;2023-08-12T00:43:29;101356.00;;;23.30
12854;BMP180;6495;51.808;7.478;2023-08-12T00:45:58;101352.00;;;23.30
12854;BMP180;6495;51.808;7.478;2023-08-12T00:48:26;101345.00;;;23.30
12854;BMP180;6495;51.808;7.478;2023-08-12T00:50:54;101344.00;;;23.30
12854;BMP180;6495;51.808;7.478;2023-08-12T00:53:22;101343.00;;;23.30
12854;BMP180;6495;51.808;7.478;2023-08-12T00:55:51;101349.00;;;23.30
12854;BMP180;6495;51.808;7.478;2023-08-12T00:58:20;101345.00;;;23.20
12854;BMP180;6495;51.808;7.478;2023-08-12T01:00:49;101343.00;;;23.20
12854;BMP180;6495;51.808;7.478;2023-08-12T01:03:18;101340.00;;;23.30
12854;BMP180;6495;51.808;7.478;2023-08-12T01:05:47;101338.00;;;23.30
12854;BMP180;6495;51.808;7.478;2023-08-12T01:08:15;101343.00;;;23.30
12854;BMP180;6495;51.808;7.478;2023-08-12T01:10:51;101337.00;;;23.30
12854;BMP180;6495;51.808;7.478;2023-08-12T01:13:37;101333.00;;;23.30
12854;BMP180;6495;51.808;7.478;2023-08-12T01:16:10;101330.00;;;23.20
12854;BMP180;6495;51.808;7.478;2023-08-12T01:18:41;101321.00;;;23.20
12854;BMP180;6495;51.808;7.478;2023-08-12T01:21:15;101324.00;;;23.30
12854;BMP180;6495;51.808;7.478;2023-08-12T01:23:46;101309.00;;;23.20
12854;BMP180;6495;51.808;7.478;2023-08-12T01:26:14;101315.00;;;23.20
12854;BMP180;6495;51.808;7.478;2023-08-12T01:28:42;101318.00;;;23.20
12854;BMP180;6495;51.808;7.478;2023-08-12T01:31:16;101317.00;;;23.20
12854;BMP180;6495;51.808;7.478;2023-08-12T01:33:55;101324.00;;;23.20
12854;BMP180;6495;51.808;7.478;2023-08-12T01:36:29;101320.00;;;23.20
12854;BMP180;6495;51.808;7.478;2023-08-12T01:39:00;101323.00;;;23.20
12854;BMP180;6495;51.808;7.478;2023-08-12T01:41:31;101320.00;;;23.20
12854;BMP180;6495;51.808;7.478;2023-08-12T01:44:01;101312.00;;;23.20
12854;BMP180;6495;51.808;7.478;2023-08-12T01:46:30;101315.00;;;23.20
12854;BMP180;6495;51.808;7.478;2023-08-12T01:48:59;101312.00;;;23.10
12854;BMP180;6495;51.808;7.478;2023-08-12T01:51:28;101324.00;;;23.10
12854;BMP180;6495;51.808;7.478;2023-08-12T01:53:56;101311.00;;;23.00
12854;BMP180;6495;51.808;7.478;2023-08-12T01:56:26;101316.00;;;23.00
12854;BMP180;6495;51.808;7.478;2023-08-12T01:58:55;101305.00;;;22.90
12854;BMP180;6495;51.808;7.478;2023-08-12T02:01:23;101313.00;;;22.90
12854;BMP180;6495;51.808;7.478;2023-08-12T02:03:52;101306.00;;;22.80
12854;BMP180;6495;51.808;7.478;2023-08-12T02:06:21;101305.00;;;22.80
12854;BMP180;6495;51.808;7.478;2023-08-12T02:08:49;101289.00;;;22.80
12854;BMP180;6495;51.808;7.478;2023-08-12T02:11:17;101309.00;;;22.80
12854;BMP180;6495;51.808;7.478;2023-08-12T02:13:47;101304.00;;;22.70
12854;BMP180;6495;51.808;7.478;2023-08-12T02:16:15;101299.00;;;22.60
12854;BMP180;6495;51.808;7.478;2023-08-12T02:18:43;101299.00;;;22.60
12854;BMP180;6495;51.808;7.478;2023-08-12T02:21:11;101295.00;;;22.60
12854;BMP180;6495;51.808;7.478;2023-08-12T02:23:39;101289.00;;;22.50
12854;BMP180;6495;51.808;7.478;2023-08-12T02:26:07;101277.00;;;22.50
12854;BMP180;6495;51.808;7.478;2023-08-12T02:28:36;101280.00;;;22.40
12854;BMP180;6495;51.808;7.478;2023-08-12T02:31:05;101290.00;;;22.40
12854;BMP180;6495;51.808;7.478;2023-08-12T02:33:33;101280.00;;;22.40
12854;BMP180;6495;51.808;7.478;2023-08-12T02:36:02;101278.00;;;22.30
12854;BMP180;6495;51.808;7.478;2023-08-12T02:38:30;101273.00;;;22.30
12854;BMP180;6495;51.808;7.478;2023-08-12T02:40:58;101272.00;;;22.30
12854;BMP180;6495;51.808;7.478;2023-08-12T02:43:26;101276.00;;;22.20
12854;BMP180;6495;51.808;7.478;2023-08-12T02:45:55;101273.00;;;22.10
12854;BMP180;6495;51.808;7.478;2023-08-12T02:48:24;101267.00;;;22.10
12854;BMP180;6495;51.808;7.478;2023-08-12T02:50:52;101268.00;;;22.00
12854;BMP180;6495;51.808;7.478;2023-08-12T02:53:20;101259.00;;;22.00
12854;BMP180;6495;51.808;7.478;2023-08-12T02:55:49;101269.00;;;22.00
12854;BMP180;6495;51.808;7.478;2023-08-12T02:58:17;101261.00;;;21.90
12854;BMP180;6495;51.808;7.478;2023-08-12T03:00:45;101269.00;;;21.90
12854;BMP180;6495;51.808;7.478;2023-08-12T03:03:14;101273.00;;;21.90
12854;BMP180;6495;51.808;7.478;2023-08-12T03:05:47;101263.00;;;21.90
12854;BMP180;6495;51.808;7.478;2023-08-12T03:08:15;101268.00;;;21.90
12854;BMP180;6495;51.808;7.478;2023-08-12T03:10:45;101258.00;;;21.90
12854;BMP180;6495;51.808;7.478;2023-08-12T03:13:15;101257.00;;;21.80
12854;BMP180;6495;51.808;7.478;2023-08-12T03:15:43;101260.00;;;21.80
12854;BMP180;6495;51.808;7.478;2023-08-12T03:18:11;101254.00;;;21.80
12854;BMP180;6495;51.808;7.478;2023-08-12T03:20:40;101247.00;;;21.80
12854;BMP180;6495;51.808;7.478;2023-08-12T03:23:09;101247.00;;;21.80
12854;BMP180;6495;51.808;7.478;2023-08-12T03:25:39;101249.00;;;21.80
12854;BMP180;6495;51.808;7.478;2023-08-12T03:28:07;101243.00;;;21.80
12854;BMP180;6495;51.808;7.478;2023-08-12T03:30:37;101247.00;;;21.80
12854;BMP180;6495;51.808;7.478;2023-08-12T03:33:06;101242.00;;;21.80
12854;BMP180;6495;51.808;7.478;2023-08-12T03:35:34;101239.00;;;21.80
12854;BMP180;6495;51.808;7.478;2023-08-12T03:38:03;101226.00;;;21.80
12854;BMP180;6495;51.808;7.478;2023-08-12T03:40:37;101232.00;;;21.80
12854;BMP180;6495;51.808;7.478;2023-08-12T03:43:07;101227.00;;;21.80
12854;BMP180;6495;51.808;7.478;2023-08-12T03:45:40;101227.00;;;21.80
12854;BMP180;6495;51.808;7.478;2023-08-12T03:48:11;101225.00;;;21.80
12854;BMP180;6495;51.808;7.478;2023-08-12T03:50:42;101215.00;;;21.80
12854;BMP180;6495;51.808;7.478;2023-08-12T03:53:12;101219.00;;;21.80
12854;BMP180;6495;51.808;7.478;2023-08-12T03:55:42;101215.00;;;21.80
12854;BMP180;6495;51.808;7.478;2023-08-12T03:58:14;101218.00;;;21.90
12854;BMP180;6495;51.808;7.478;2023-08-12T04:00:42;101227.00;;;21.90
12854;BMP180;6495;51.808;7.478;2023-08-12T04:03:13;101215.00;;;21.90
12854;BMP180;6495;51.808;7.478;2023-08-12T04:05:48;101221.00;;;21.90
12854;BMP180;6495;51.808;7.478;2023-08-12T04:08:21;101211.00;;;21.90
12854;BMP180;6495;51.808;7.478;2023-08-12T04:10:51;101218.00;;;21.90
12854;BMP180;6495;51.808;7.478;2023-08-12T04:13:20;101216.00;;;21.90
12854;BMP180;6495;51.808;7.478;2023-08-12T04:15:50;101213.00;;;21.90
12854;BMP180;6495;51.808;7.478;2023-08-12T04:18:20;101206.00;;;21.90
12854;BMP180;6495;51.808;7.478;2023-08-12T04:20:50;101210.00;;;21.90
12854;BMP180;6495;51.808;7.478;2023-08-12T04:23:19;101213.00;;;21.90
12854;BMP180;6495;51.808;7.478;2023-08-12T04:25:48;101203.00;;;21.90
12854;BMP180;6495;51.808;7.478;2023-08-12T04:28:20;101200.00;;;21.90
12854;BMP180;6495;51.808;7.478;2023-08-12T04:30:49;101191.00;;;21.90
12854;BMP180;6495;51.808;7.478;2023-08-12T04:33:20;101199.00;;;22.00
12854;BMP180;6495;51.808;7.478;2023-08-12T04:35:49;101191.00;;;21.90
12854;BMP180;6495;51.808;7.478;2023-08-12T04:38:18;101193.00;;;22.00
12854;BMP180;6495;51.808;7.478;2023-08-12T04:40:48;101185.00;;;22.00
12854;BMP180;6495;51.808;7.478;2023-08-12T04:43:17;101187.00;;;22.00
12854;BMP180;6495;51.808;7.478;2023-08-12T04:45:47;101183.00;;;22.00
12854;BMP180;6495;51.808;7.478;2023-08-12T04:48:18;101179.00;;;22.00
12854;BMP180;6495;51.808;7.478;2023-08-12T04:50:46;101181.00;;;22.10
12854;BMP180;6495;51.808;7.478;2023-08-12T04:53:18;101177.00;;;22.10
12854;BMP180;6495;51.808;7.478;2023-08-12T04:55:50;101176.00;;;22.10
12854;BMP180;6495;51.808;7.478;2023-08-12T04:58:19;101171.00;;;22.10
12854;BMP180;6495;51.808;7.478;2023-08-12T05:00:50;101164.00;;;22.10
12854;BMP180;6495;51.808;7.478;2023-08-12T05:03:20;101164.00;;;22.20
12854;BMP180;6495;51.808;7.478;2023-08-12T05:05:51;101160.00;;;22.10
12854;BMP180;6495;51.808;7.478;2023-08-12T05:08:23;101151.00;;;22.10
12854;BMP180;6495;51.808;7.478;2023-08-12T05:10:51;101146.00;;;22.20
12854;BMP180;6495;51.808;7.478;2023-08-12T05:13:20;101152.00;;;22.10
12854;BMP180;6495;51.808;7.478;2023-08-12T05:15:49;101139.00;;;22.20
12854;BMP180;6495;51.808;7.478;2023-08-12T05:18:18;101141.00;;;22.20
12854;BMP180;6495;51.808;7.478;2023-08-12T05:20:46;101139.00;;;22.20
12854;BMP180;6495;51.808;7.478;2023-08-12T05:23:14;101135.00;;;22.20
12854;BMP180;6495;51.808;7.478;2023-08-12T05:25:42;101144.00;;;22.30
12854;BMP180;6495;51.808;7.478;2023-08-12T05:28:11;101152.00;;;22.30
12854;BMP180;6495;51.808;7.478;2023-08-12T05:30:39;101147.00;;;22.30
12854;BMP180;6495;51.808;7.478;2023-08-12T05:33:08;101132.00;;;22.30
12854;BMP180;6495;51.808;7.478;2023-08-12T05:35:37;101136.00;;;22.40
12854;BMP180;6495;51.808;7.478;2023-08-12T05:38:05;101129.00;;;22.40
12854;BMP180;6495;51.808;7.478;2023-08-12T05:40:33;101125.00;;;22.30
12854;BMP180;6495;51.808;7.478;2023-08-12T05:43:01;101139.00;;;22.30
12854;BMP180;6495;51.808;7.478;2023-08-12T05:45:29;101135.00;;;22.20
12854;BMP180;6495;51.808;7.478;2023-08-12T05:47:58;101147.00;;;22.20
12854;BMP180;6495;51.808;7.478;2023-08-12T05:50:27;101137.00;;;22.30
12854;BMP180;6495;51.808;7.478;2023-08-12T05:52:55;101130.00;;;22.20
12854;BMP180;6495;51.808;7.478;2023-08-12T05:55:24;101131.00;;;22.20
12854;BMP180;6495;51.808;7.478;2023-08-12T05:57:52;101142.00;;;22.20
12854;BMP180;6495;51.808;7.478;2023-08-12T06:00:20;101137.00;;;22.20
12854;BMP180;6495;51.808;7.478;2023-08-12T06:02:48;101137.00;;;22.20
12854;BMP180;6495;51.808;7.478;2023-08-12T06:05:18;101123.00;;;22.20
12854;BMP180;6495;51.808;7.478;2023-08-12T06:07:48;101117.00;;;22.30
12854;BMP180;6495;51.808;7.478;2023-08-12T06:10:16;101117.00;;;22.30
12854;BMP180;6495;51.808;7.478;2023-08-12T06:12:44;101120.00;;;22.30
12854;BMP180;6495;51.808;7.478;2023-08-12T06:15:12;101119.00;;;22.30
12854;BMP180;6495;51.808;7.478;2023-08-12T06:17:40;101114.00;;;22.40
12854;BMP180;6495;51.808;7.478;2023-08-12T06:20:10;101111.00;;;22.40
12854;BMP180;6495;51.808;7.478;2023-08-12T06:22:38;101120.00;;;22.30
12854;BMP180;6495;51.808;7.478;2023-08-12T06:25:08;101111.00;;;22.40
12854;BMP180;6495;51.808;7.478;2023-08-12T06:27:37;101119.00;;;22.40
12854;BMP180;6495;51.808;7.478;2023-08-12T06:30:06;101118.00;;;22.40
12854;BMP180;6495;51.808;7.478;2023-08-12T06:32:35;101108.00;;;22.30
12854;BMP180;6495;51.808;7.478;2023-08-12T06:35:04;101108.00;;;22.30
12854;BMP180;6495;51.808;7.478;2023-08-12T06:37:33;101109.00;;;22.30
12854;BMP180;6495;51.808;7.478;2023-08-12T06:40:01;101104.00;;;22.30
12854;BMP180;6495;51.808;7.478;2023-08-12T06:42:31;101100.00;;;22.30
12854;BMP180;6495;51.808;7.478;2023-08-12T06:45:00;101093.00;;;22.30
12854;BMP180;6495;51.808;7.478;2023-08-12T06:47:30;101094.00;;;22.30
12854;BMP180;6495;51.808;7.478;2023-08-12T06:49:59;101094.00;;;22.30
12854;BMP180;6495;51.808;7.478;2023-08-12T06:52:27;101100.00;;;22.30
12854;BMP180;6495;51.808;7.478;2023-08-12T06:54:55;101083.00;;;22.20
12854;BMP180;6495;51.808;7.478;2023-08-12T06:57:23;101087.00;;;22.20
12854;BMP180;6495;51.808;7.478;2023-08-12T06:59:53;101090.00;;;22.20
12854;BMP180;6495;51.808;7.478;2023-08-12T07:02:21;101094.00;;;22.20
12854;BMP180;6495;51.808;7.478;2023-08-12T07:04:49;101093.00;;;22.20
12854;BMP180;6495;51.808;7.478;2023-08-12T07:07:18;101103.00;;;22.10
12854;BMP180;6495;51.808;7.478;2023-08-12T07:09:46;101089.00;;;22.10
12854;BMP180;6495;51.808;7.478;2023-08-12T07:12:14;101086.00;;;22.10
12854;BMP180;6495;51.808;7.478;2023-08-12T07:14:42;101084.00;;;22.20
12854;BMP180;6495;51.808;7.478;2023-08-12T07:17:12;101083.00;;;22.20
12854;BMP180;6495;51.808;7.478;2023-08-12T07:19:40;101085.00;;;22.10
12854;BMP180;6495;51.808;7.478;2023-08-12T07:22:08;101084.00;;;22.10
12854;BMP180;6495;51.808;7.478;2023-08-12T07:24:36;101078.00;;;22.10
12854;BMP180;6495;51.808;7.478;2023-08-12T07:27:05;101069.00;;;22.10
12854;BMP180;6495;51.808;7.478;2023-08-12T07:29:34;101067.00;;;22.10
12854;BMP180;6495;51.808;7.478;2023-08-12T07:32:08;101072.00;;;22.10
12854;BMP180;6495;51.808;7.478;2023-08-12T07:34:38;101072.00;;;22.10
12854;BMP180;6495;51.808;7.478;2023-08-12T07:37:06;101059.00;;;22.00
12854;BMP180;6495;51.808;7.478;2023-08-12T07:39:34;101050.00;;;22.00
12854;BMP180;6495;51.808;7.478;2023-08-12T07:42:03;101057.00;;;22.00
12854;BMP180;6495;51.808;7.478;2023-08-12T07:44:31;101057.00;;;22.10
12854;BMP180;6495;51.808;7.478;2023-08-12T07:46:59;101061.00;;;22.10
12854;BMP180;6495;51.808;7.478;2023-08-12T07:49:27;101062.00;;;22.10
12854;BMP180;6495;51.808;7.478;2023-08-12T07:51:57;101060.00;;;22.10
12854;BMP180;6495;51.808;7.478;2023-08-12T07:54:25;101061.00;;;22.10
12854;BMP180;6495;51.808;7.478;2023-08-12T07:56:53;101062.00;;;22.10
12854;BMP180;6495;51.808;7.478;2023-08-12T07:59:21;101050.00;;;22.10
12854;BMP180;6495;51.808;7.478;2023-08-12T08:01:49;101054.00;;;22.10
12854;BMP180;6495;51.808;7.478;2023-08-12T08:04:18;101062.00;;;22.10
12854;BMP180;6495;51.808;7.478;2023-08-12T08:06:48;101061.00;;;22.10
12854;BMP180;6495;51.808;7.478;2023-08-12T08:09:22;101056.00;;;22.20
12854;BMP180;6495;51.808;7.478;2023-08-12T08:11:51;101041.00;;;22.10
12854;BMP180;6495;51.808;7.478;2023-08-12T08:14:21;101049.00;;;22.10
12854;BMP180;6495;51.808;7.478;2023-08-12T08:16:50;101044.00;;;22.10
12854;BMP180;6495;51.808;7.478;2023-08-12T08:19:18;101051.00;;;22.10
12854;BMP180;6495;51.808;7.478;2023-08-12T08:21:46;101054.00;;;22.10
12854;BMP180;6495;51.808;7.478;2023-08-12T08:24:14;101051.00;;;22.20
12854;BMP180;6495;51.808;7.478;2023-08-12T08:26:44;101049.00;;;22.20
12854;BMP180;6495;51.808;7.478;2023-08-12T08:29:12;101050.00;;;22.20
12854;BMP180;6495;51.808;7.478;2023-08-12T08:31:40;101041.00;;;22.20
12854;BMP180;6495;51.808;7.478;2023-08-12T08:34:08;101039.00;;;22.20
12854;BMP180;6495;51.808;7.478;2023-08-12T08:36:37;101031.00;;;22.20
12854;BMP180;6495;51.808;7.478;2023-08-12T08:39:06;101028.00;;;22.20
12854;BMP180;6495;51.808;7.478;2023-08-12T08:41:38;101034.00;;;22.20
12854;BMP180;6495;51.808;7.478;2023-08-12T08:44:08;101030.00;;;22.30
12854;BMP180;6495;51.808;7.478;2023-08-12T08:46:37;101038.00;;;22.30
12854;BMP180;6495;51.808;7.478;2023-08-12T08:49:06;101027.00;;;22.30
12854;BMP180;6495;51.808;7.478;2023-08-12T08:51:36;101034.00;;;22.30
12854;BMP180;6495;51.808;7.478;2023-08-12T08:54:05;101037.00;;;22.30
12854;BMP180;6495;51.808;7.478;2023-08-12T08:56:33;101036.00;;;22.30
12854;BMP180;6495;51.808;7.478;2023-08-12T08:59:12;101041.00;;;22.30
12854;BMP180;6495;51.808;7.478;2023-08-12T09:01:41;101037.00;;;22.30
12854;BMP180;6495;51.808;7.478;2023-08-12T09:04:15;101036.00;;;22.40
12854;BMP180;6495;51.808;7.478;2023-08-12T09:06:44;101041.00;;;22.40
12854;BMP180;6495;51.808;7.478;2023-08-12T09:09:16;101038.00;;;22.40
12854;BMP180;6495;51.808;7.478;2023-08-12T09:11:48;101046.00;;;22.50
12854;BMP180;6495;51.808;7.478;2023-08-12T09:14:18;101047.00;;;22.50
12854;BMP180;6495;51.808;7.478;2023-08-12T09:16:47;101048.00;;;22.50
12854;BMP180;6495;51.808;7.478;2023-08-12T09:19:15;101052.00;;;22.50
12854;BMP180;6495;51.808;7.478;2023-08-12T09:21:44;101039.00;;;22.40
12854;BMP180;6495;51.808;7.478;2023-08-12T09:24:24;101036.00;;;22.40
12854;BMP180;6495;51.808;7.478;2023-08-12T09:26:52;101043.00;;;22.40
12854;BMP180;6495;51.808;7.478;2023-08-12T09:29:24;101045.00;;;22.40
12854;BMP180;6495;51.808;7.478;2023-08-12T09:32:06;101042.00;;;22.40
12854;BMP180;6495;51.808;7.478;2023-08-12T09:34:35;101042.00;;;22.40
12854;BMP180;6495;51.808;7.478;2023-08-12T09:37:04;101043.00;;;22.40
12854;BMP180;6495;51.808;7.478;2023-08-12T09:39:32;101042.00;;;22.40
12854;BMP180;6495;51.808;7.478;2023-08-12T09:42:00;101038.00;;;22.40
12854;BMP180;6495;51.808;7.478;2023-08-12T09:44:34;101037.00;;;22.40
12854;BMP180;6495;51.808;7.478;2023-08-12T09:47:03;101029.00;;;22.40
12854;BMP180;6495;51.808;7.478;2023-08-12T09:49:31;101033.00;;;22.40
12854;BMP180;6495;51.808;7.478;2023-08-12T09:51:59;101032.00;;;22.40
12854;BMP180;6495;51.808;7.478;2023-08-12T09:54:31;101024.00;;;22.50
12854;BMP180;6495;51.808;7.478;2023-08-12T09:57:02;101029.00;;;22.40
12854;BMP180;6495;51.808;7.478;2023-08-12T09:59:34;101027.00;;;22.40
12854;BMP180;6495;51.808;7.478;2023-08-12T10:02:04;101034.00;;;22.40
12854;BMP180;6495;51.808;7.478;2023-08-12T10:04:39;101034.00;;;22.40
12854;BMP180;6495;51.808;7.478;2023-08-12T10:07:10;101027.00;;;22.50
12854;BMP180;6495;51.808;7.478;2023-08-12T10:09:40;101029.00;;;22.60
12854;BMP180;6495;51.808;7.478;2023-08-12T10:12:09;101032.00;;;22.50
12854;BMP180;6495;51.808;7.478;2023-08-12T10:14:41;101026.00;;;22.50
12854;BMP180;6495;51.808;7.478;2023-08-12T10:17:10;101040.00;;;22.50
12854;BMP180;6495;51.808;7.478;2023-08-12T10:19:44;101039.00;;;22.50
12854;BMP180;6495;51.808;7.478;2023-08-12T10:22:13;101041.00;;;22.50
12854;BMP180;6495;51.808;7.478;2023-08-12T10:24:42;101040.00;;;22.50
12854;BMP180;6495;51.808;7.478;2023-08-12T10:27:13;101032.00;;;22.50
12854;BMP180;6495;51.808;7.478;2023-08-12T10:29:44;101031.00;;;22.50
12854;BMP180;6495;51.808;7.478;2023-08-12T10:32:13;101039.00;;;22.50
12854;BMP180;6495;51.808;7.478;2023-08-12T10:34:43;101042.00;;;22.50
12854;BMP180;6495;51.808;7.478;2023-08-12T10:37:11;101041.00;;;22.50
12854;BMP180;6495;51.808;7.478;2023-08-12T10:39:40;101042.00;;;22.50
12854;BMP180;6495;51.808;7.478;2023-08-12T10:42:08;101042.00;;;22.50
12854;BMP180;6495;51.808;7.478;2023-08-12T10:44:51;101040.00;;;22.60
12854;BMP180;6495;51.808;7.478;2023-08-12T10:47:21;101048.00;;;22.60
12854;BMP180;6495;51.808;7.478;2023-08-12T10:49:53;101043.00;;;22.60
12854;BMP180;6495;51.808;7.478;2023-08-12T10:52:28;101041.00;;;22.60
12854;BMP180;6495;51.808;7.478;2023-08-12T10:55:18;101039.00;;;22.60
12854;BMP180;6495;51.808;7.478;2023-08-12T10:57:49;101048.00;;;22.60
12854;BMP180;6495;51.808;7.478;2023-08-12T11:00:25;101043.00;;;22.60
12854;BMP180;6495;51.808;7.478;2023-08-12T11:02:55;101043.00;;;22.60
12854;BMP180;6495;51.808;7.478;2023-08-12T11:05:26;101031.00;;;22.70
12854;BMP180;6495;51.808;7.478;2023-08-12T11:08:05;101031.00;;;22.70
12854;BMP180;6495;51.808;7.478;2023-08-12T11:10:34;101031.00;;;22.70
12854;BMP180;6495;51.808;7.478;2023-08-12T11:13:03;101044.00;;;22.80
12854;BMP180;6495;51.808;7.478;2023-08-12T11:15:35;101031.00;;;22.80
12854;BMP180;6495;51.808;7.478;2023-08-12T11:18:07;101029.00;;;22.90
12854;BMP180;6495;51.808;7.478;2023-08-12T11:20:36;101025.00;;;22.90
12854;BMP180;6495;51.808;7.478;2023-08-12T11:23:07;101028.00;;;23.00
12854;BMP180;6495;51.808;7.478;2023-08-12T11:25:38;101014.00;;;23.10
12854;BMP180;6495;51.808;7.478;2023-08-12T11:28:07;101016.00;;;23.20
12854;BMP180;6495;51.808;7.478;2023-08-12T11:30:41;101014.00;;;23.20
12854;BMP180;6495;51.808;7.478;2023-08-12T11:33:10;101009.00;;;23.30
12854;BMP180;6495;51.808;7.478;2023-08-12T11:35:40;101007.00;;;23.30
12854;BMP180;6495;51.808;7.478;2023-08-12T11:38:08;101010.00;;;23.40
12854;BMP180;6495;51.808;7.478;2023-08-12T11:40:37;101009.00;;;23.50
12854;BMP180;6495;51.808;7.478;2023-08-12T11:43:06;101005.00;;;23.50
12854;BMP180;6495;51.808;7.478;2023-08-12T11:45:34;101006.00;;;23.60
12854;BMP180;6495;51.808;7.478;2023-08-12T11:48:06;101009.00;;;23.70
12854;BMP180;6495;51.808;7.478;2023-08-12T11:50:35;101010.00;;;23.80
12854;BMP180;6495;51.808;7.478;2023-08-12T11:53:03;101013.00;;;23.90
12854;BMP180;6495;51.808;7.478;2023-08-12T11:55:32;101001.00;;;24.00
12854;BMP180;6495;51.808;7.478;2023-08-12T11:58:00;101010.00;;;24.00
12854;BMP180;6495;51.808;7.478;2023-08-12T12:00:29;100997.00;;;24.10
12854;BMP180;6495;51.808;7.478;2023-08-12T12:02:57;101005.00;;;24.10
12854;BMP180;6495;51.808;7.478;2023-08-12T12:05:29;101016.00;;;24.10
12854;BMP180;6495;51.808;7.478;2023-08-12T12:07:59;101004.00;;;24.10
12854;BMP180;6495;51.808;7.478;2023-08-12T12:10:29;101010.00;;;24.10
12854;BMP180;6495;51.808;7.478;2023-08-12T12:13:03;101004.00;;;24.10
12854;BMP180;6495;51.808;7.478;2023-08-12T12:15:38;101007.00;;;24.20
12854;BMP180;6495;51.808;7.478;2023-08-12T12:18:10;101006.00;;;24.20
12854;BMP180;6495;51.808;7.478;2023-08-12T12:20:54;101008.00;;;24.20
12854;BMP180;6495;51.808;7.478;2023-08-12T12:23:27;101003.00;;;24.20
12854;BMP180;6495;51.808;7.478;2023-08-12T12:26:00;101006.00;;;24.20
12854;BMP180;6495;51.808;7.478;2023-08-12T12:28:29;101008.00;;;24.10
12854;BMP180;6495;51.808;7.478;2023-08-12T12:30:58;101005.00;;;24.20
12854;BMP180;6495;51.808;7.478;2023-08-12T12:33:26;101009.00;;;24.20
12854;BMP180;6495;51.808;7.478;2023-08-12T12:35:56;101017.00;;;24.20
12854;BMP180;6495;51.808;7.478;2023-08-12T12:38:28;101024.00;;;24.20
12854;BMP180;6495;51.808;7.478;2023-08-12T12:40:56;101024.00;;;24.10
12854;BMP180;6495;51.808;7.478;2023-08-12T12:43:25;101033.00;;;24.00
12854;BMP180;6495;51.808;7.478;2023-08-12T12:45:53;101026.00;;;24.00
12854;BMP180;6495;51.808;7.478;2023-08-12T12:48:21;101028.00;;;24.00
12854;BMP180;6495;51.808;7.478;2023-08-12T12:50:49;101028.00;;;23.90
12854;BMP180;6495;51.808;7.478;2023-08-12T12:53:19;101027.00;;;23.90
12854;BMP180;6495;51.808;7.478;2023-08-12T12:55:47;101022.00;;;23.90
12854;BMP180;6495;51.808;7.478;2023-08-12T12:58:15;101016.00;;;24.00
12854;BMP180;6495;51.808;7.478;2023-08-12T13:00:44;101020.00;;;24.00
12854;BMP180;6495;51.808;7.478;2023-08-12T13:03:12;101014.00;;;24.10
12854;BMP180;6495;51.808;7.478;2023-08-12T13:05:40;101013.00;;;24.10
12854;BMP180;6495;51.808;7.478;2023-08-12T13:08:08;101013.00;;;24.20
12854;BMP180;6495;51.808;7.478;2023-08-12T13:10:38;101015.00;;;24.20
12854;BMP180;6495;51.808;7.478;2023-08-12T13:13:06;101012.00;;;24.20
12854;BMP180;6495;51.808;7.478;2023-08-12T13:15:35;101011.00;;;24.20
12854;BMP180;6495;51.808;7.478;2023-08-12T13:18:03;101020.00;;;24.20
12854;BMP180;6495;51.808;7.478;2023-08-12T13:20:31;101030.00;;;24.20
12854;BMP180;6495;51.808;7.478;2023-08-12T13:22:59;101018.00;;;24.20
12854;BMP180;6495;51.808;7.478;2023-08-12T13:25:31;101011.00;;;24.20
12854;BMP180;6495;51.808;7.478;2023-08-12T13:28:01;101025.00;;;24.30
12854;BMP180;6495;51.808;7.478;2023-08-12T13:30:30;101034.00;;;24.30
12854;BMP180;6495;51.808;7.478;2023-08-12T13:32:58;101044.00;;;24.30
12854;BMP180;6495;51.808;7.478;2023-08-12T13:35:28;101050.00;;;24.30
12854;BMP180;6495;51.808;7.478;2023-08-12T13:37:56;101035.00;;;24.20
12854;BMP180;6495;51.808;7.478;2023-08-12T13:40:25;101027.00;;;24.20
12854;BMP180;6495;51.808;7.478;2023-08-12T13:42:53;101025.00;;;24.20
12854;BMP180;6495;51.808;7.478;2023-08-12T13:45:22;101019.00;;;24.20
12854;BMP180;6495;51.808;7.478;2023-08-12T13:47:51;101020.00;;;24.10
12854;BMP180;6495;51.808;7.478;2023-08-12T13:50:20;101024.00;;;24.10
12854;BMP180;6495;51.808;7.478;2023-08-12T13:52:48;101020.00;;;24.10
12854;BMP180;6495;51.808;7.478;2023-08-12T13:55:17;101018.00;;;24.10
12854;BMP180;6495;51.808;7.478;2023-08-12T13:57:45;101007.00;;;24.00
12854;BMP180;6495;51.808;7.478;2023-08-12T14:00:14;101024.00;;;24.00
12854;BMP180;6495;51.808;7.478;2023-08-12T14:02:44;101026.00;;;24.00
12854;BMP180;6495;51.808;7.478;2023-08-12T14:05:12;101042.00;;;23.90
12854;BMP180;6495;51.808;7.478;2023-08-12T14:07:41;101048.00;;;23.80
12854;BMP180;6495;51.808;7.478;2023-08-12T14:10:10;101054.00;;;23.80
12854;BMP180;6495;51.808;7.478;2023-08-12T14:12:38;101031.00;;;23.70
12854;BMP180;6495;51.808;7.478;2023-08-12T14:15:07;101041.00;;;23.70
12854;BMP180;6495;51.808;7.478;2023-08-12T14:17:35;101043.00;;;23.70
12854;BMP180;6495;51.808;7.478;2023-08-12T14:20:07;101045.00;;;23.70
12854;BMP180;6495;51.808;7.478;2023-08-12T14:22:36;101052.00;;;23.70